createdAt,value
2018-07-05T00:02:01.188Z,22.01
2018-07-05T00:04:47.817Z,22.02
2018-07-05T00:07:34.238Z,22.04
2018-07-05T00:10:20.865Z,22.06
2018-07-05T00:13:07.405Z,22.05
2018-07-05T00:15:53.880Z,21.98
2018-07-05T00:18:40.344Z,22.01
2018-07-05T00:21:26.786Z,22.01
2018-07-05T00:24:13.559Z,21.99
2018-07-05T00:27:00.099Z,22.04
2018-07-05T00:29:46.596Z,21.93
2018-07-05T00:32:33.213Z,21.99
2018-07-05T00:35:19.879Z,22.00
2018-07-05T00:38:06.342Z,22.01
2018-07-05T00:40:52.952Z,21.95
2018-07-05T00:43:39.636Z,21.92
2018-07-05T00:46:26.184Z,21.91
2018-07-05T00:49:12.688Z,21.88
2018-07-05T00:51:59.193Z,21.81
2018-07-05T00:54:45.679Z,21.82
2018-07-05T00:57:32.236Z,21.75
2018-07-05T01:00:18.789Z,21.75
2018-07-05T01:03:05.325Z,21.75
2018-07-05T01:05:51.723Z,21.76
2018-07-05T01:08:38.429Z,21.70
2018-07-05T01:11:24.878Z,21.65
2018-07-05T01:14:11.491Z,21.68
2018-07-05T01:16:58.344Z,21.73
2018-07-05T01:19:45.057Z,21.74
2018-07-05T01:22:31.712Z,21.75
2018-07-05T01:25:18.193Z,21.75
2018-07-05T01:28:04.695Z,21.76
2018-07-05T01:30:51.160Z,21.71
2018-07-05T01:33:37.810Z,21.74
2018-07-05T01:36:24.447Z,21.77
2018-07-05T01:39:11.142Z,21.80
2018-07-05T01:41:57.877Z,21.82
2018-07-05T01:44:44.484Z,21.75
2018-07-05T01:47:30.919Z,21.77
2018-07-05T01:50:17.488Z,21.69
2018-07-05T01:53:04.005Z,21.62
2018-07-05T01:55:50.749Z,21.65
2018-07-05T01:58:37.350Z,21.70
2018-07-05T02:01:23.864Z,21.69
2018-07-05T02:04:10.472Z,21.70
2018-07-05T02:06:57.092Z,21.65
2018-07-05T02:09:43.620Z,21.67
2018-07-05T02:12:30.077Z,21.64
2018-07-05T02:15:16.699Z,21.62
2018-07-05T02:18:03.243Z,21.60
2018-07-05T02:20:49.743Z,21.57
2018-07-05T02:23:36.247Z,21.58
2018-07-05T02:26:22.791Z,21.51
2018-07-05T02:29:09.372Z,21.48
2018-07-05T02:31:56.016Z,21.49
2018-07-05T02:34:42.538Z,21.42
2018-07-05T02:37:34.160Z,21.41
2018-07-05T02:40:20.767Z,21.41
2018-07-05T02:43:07.390Z,21.45
2018-07-05T02:45:53.895Z,21.41
2018-07-05T02:48:40.604Z,21.37
2018-07-05T02:51:27.283Z,21.37
2018-07-05T02:54:13.995Z,21.33
2018-07-05T02:57:00.669Z,21.31
2018-07-05T02:59:47.417Z,21.29
2018-07-05T03:02:34.108Z,21.26
2018-07-05T03:05:20.687Z,21.22
2018-07-05T03:08:07.179Z,21.48
2018-07-05T03:10:53.960Z,21.86
2018-07-05T03:13:40.549Z,22.04
2018-07-05T03:16:27.068Z,22.30
2018-07-05T03:19:13.573Z,22.52
2018-07-05T03:22:00.988Z,22.69
2018-07-05T03:24:47.578Z,22.76
2018-07-05T03:27:34.219Z,22.83
2018-07-05T03:30:20.908Z,22.95
2018-07-05T03:33:07.443Z,22.99
2018-07-05T03:35:53.830Z,23.09
2018-07-05T03:38:40.526Z,23.13
2018-07-05T03:41:27.052Z,23.14
2018-07-05T03:44:13.524Z,23.22
2018-07-05T03:47:00.126Z,23.30
2018-07-05T03:49:46.839Z,23.27
2018-07-05T03:52:33.599Z,23.31
2018-07-05T03:55:20.253Z,23.35
2018-07-05T03:58:06.704Z,23.43
2018-07-05T04:00:53.265Z,23.46
2018-07-05T04:03:39.666Z,23.49
2018-07-05T04:06:26.147Z,23.48
2018-07-05T04:09:12.692Z,23.54
2018-07-05T04:11:59.270Z,23.68
2018-07-05T04:14:45.771Z,23.66
2018-07-05T04:17:32.430Z,23.59
2018-07-05T04:20:18.972Z,23.60
2018-07-05T04:23:05.736Z,23.53
2018-07-05T04:25:52.265Z,23.56
2018-07-05T04:28:38.616Z,23.58
2018-07-05T04:31:25.279Z,23.66
2018-07-05T04:34:11.754Z,23.70
2018-07-05T04:36:58.393Z,23.73
2018-07-05T04:39:44.943Z,23.73
2018-07-05T04:42:31.444Z,23.65
2018-07-05T04:45:18.053Z,23.67
2018-07-05T04:48:04.680Z,23.57
2018-07-05T04:50:51.595Z,23.50
2018-07-05T04:53:38.411Z,23.29
2018-07-05T04:56:25.091Z,23.06
2018-07-05T04:59:11.512Z,22.67
2018-07-05T05:01:57.944Z,22.58
2018-07-05T05:04:45.046Z,22.64
2018-07-05T05:07:31.657Z,22.81
2018-07-05T05:10:18.157Z,23.18
2018-07-05T05:13:04.796Z,23.17
2018-07-05T05:15:51.408Z,23.07
2018-07-05T05:18:38.140Z,23.06
2018-07-05T05:21:24.636Z,23.03
2018-07-05T05:24:11.209Z,23.14
2018-07-05T05:26:57.719Z,23.23
2018-07-05T05:29:44.699Z,23.22
2018-07-05T05:32:31.433Z,23.23
2018-07-05T05:35:18.099Z,23.22
2018-07-05T05:38:04.938Z,23.14
2018-07-05T05:40:51.643Z,22.90
2018-07-05T05:43:38.302Z,22.96
2018-07-05T05:46:24.864Z,22.79
2018-07-05T05:49:11.444Z,22.32
2018-07-05T05:51:58.055Z,22.08
2018-07-05T05:54:44.668Z,22.01
2018-07-05T05:57:31.443Z,22.06
2018-07-05T06:00:17.923Z,22.16
2018-07-05T06:03:04.315Z,22.09
2018-07-05T06:05:50.859Z,22.20
2018-07-05T06:08:37.637Z,22.13
2018-07-05T06:11:24.188Z,22.29
2018-07-05T06:14:10.765Z,22.32
2018-07-05T06:16:57.351Z,22.43
2018-07-05T06:19:43.771Z,22.48
2018-07-05T06:22:30.515Z,22.48
2018-07-05T06:25:17.068Z,22.36
2018-07-05T06:28:03.512Z,22.61
2018-07-05T06:30:50.232Z,22.79
2018-07-05T06:33:36.921Z,23.00
2018-07-05T06:36:23.572Z,23.11
2018-07-05T06:39:10.257Z,23.30
2018-07-05T06:41:56.800Z,23.37
2018-07-05T06:44:43.337Z,23.54
2018-07-05T06:47:29.871Z,23.48
2018-07-05T06:50:16.391Z,23.66
2018-07-05T06:53:03.071Z,23.93
2018-07-05T06:55:49.495Z,24.10
2018-07-05T06:58:36.073Z,24.05
2018-07-05T07:01:22.633Z,24.11
2018-07-05T07:04:09.160Z,24.11
2018-07-05T07:06:55.663Z,24.35
2018-07-05T07:09:42.340Z,24.31
2018-07-05T07:12:28.859Z,24.27
2018-07-05T07:15:15.796Z,24.27
2018-07-05T07:18:02.306Z,24.26
2018-07-05T07:20:48.816Z,24.33
2018-07-05T07:23:35.460Z,24.00
2018-07-05T07:26:22.164Z,23.83
2018-07-05T07:29:08.819Z,23.97
2018-07-05T07:31:55.595Z,24.15
2018-07-05T07:34:42.360Z,24.21
2018-07-05T07:37:29.335Z,24.44
2018-07-05T07:40:15.852Z,24.41
2018-07-05T07:43:45.072Z,24.49
2018-07-05T07:46:13.109Z,24.53
2018-07-05T07:48:41.225Z,24.49
2018-07-05T07:51:09.316Z,24.59
2018-07-05T07:53:37.531Z,24.76
2018-07-05T07:56:05.578Z,24.85
2018-07-05T07:58:33.824Z,25.07
2018-07-05T08:01:01.932Z,25.32
2018-07-05T08:03:30.318Z,25.42
2018-07-05T08:05:58.406Z,25.15
2018-07-05T08:08:26.524Z,24.96
2018-07-05T08:10:54.700Z,24.92
2018-07-05T08:13:22.799Z,25.10
2018-07-05T08:15:50.960Z,25.01
2018-07-05T08:18:19.222Z,24.74
2018-07-05T08:20:48.107Z,24.70
2018-07-05T08:23:16.268Z,24.86
2018-07-05T08:25:44.565Z,24.83
2018-07-05T08:28:12.896Z,25.00
2018-07-05T08:30:41.044Z,24.91
2018-07-05T08:33:09.087Z,25.00
2018-07-05T08:35:37.384Z,24.87
2018-07-05T08:38:05.484Z,24.85
2018-07-05T08:40:33.518Z,25.01
2018-07-05T08:43:01.552Z,25.10
2018-07-05T08:45:29.642Z,25.08
2018-07-05T08:47:57.696Z,25.02
2018-07-05T08:50:25.719Z,25.02
2018-07-05T08:52:53.884Z,25.05
2018-07-05T08:55:21.913Z,24.97
2018-07-05T08:57:49.963Z,25.10
2018-07-05T09:00:18.009Z,25.35
2018-07-05T09:02:46.042Z,25.35
2018-07-05T09:05:14.126Z,25.33
2018-07-05T09:07:43.046Z,25.35
2018-07-05T09:10:11.236Z,25.36
2018-07-05T09:12:40.038Z,25.37
2018-07-05T09:15:08.118Z,25.20
2018-07-05T09:17:36.233Z,25.21
2018-07-05T09:20:04.267Z,25.25
2018-07-05T09:22:32.306Z,25.29
2018-07-05T09:25:00.345Z,25.43
2018-07-05T09:27:28.620Z,25.37
2018-07-05T09:29:56.754Z,25.39
2018-07-05T09:32:24.813Z,25.44
2018-07-05T09:34:52.855Z,25.38
2018-07-05T09:37:21.137Z,25.57
2018-07-05T09:39:49.218Z,25.64
2018-07-05T09:42:17.260Z,25.72
2018-07-05T09:44:45.373Z,25.58
2018-07-05T09:47:13.412Z,25.60
2018-07-05T09:49:41.456Z,25.65
2018-07-05T09:52:09.502Z,25.54
2018-07-05T09:54:37.539Z,25.64
2018-07-05T09:57:05.657Z,25.75
2018-07-05T09:59:33.716Z,25.76
2018-07-05T10:02:01.854Z,25.78
2018-07-05T10:04:30.012Z,25.77
2018-07-05T10:06:58.063Z,25.88
2018-07-05T10:09:26.160Z,26.02
2018-07-05T10:11:54.240Z,25.98
2018-07-05T10:14:22.393Z,25.99
2018-07-05T10:16:50.440Z,26.06
2018-07-05T10:19:18.610Z,26.03
2018-07-05T10:21:46.692Z,26.17
2018-07-05T10:24:14.896Z,26.01
2018-07-05T10:26:43.154Z,25.83
2018-07-05T10:29:23.589Z,25.78
2018-07-05T10:32:10.250Z,25.81
2018-07-05T10:34:44.544Z,25.81
2018-07-05T10:37:16.712Z,25.91
2018-07-05T10:39:57.844Z,25.89
2018-07-05T10:42:44.456Z,25.85
2018-07-05T10:45:31.007Z,25.97
2018-07-05T10:48:17.507Z,25.94
2018-07-05T10:51:04.011Z,25.95
2018-07-05T10:53:50.663Z,26.09
2018-07-05T10:56:37.352Z,25.88
2018-07-05T10:59:23.743Z,26.03
2018-07-05T11:02:10.235Z,26.01
2018-07-05T11:04:56.819Z,25.82
2018-07-05T11:07:43.448Z,25.83
2018-07-05T11:10:29.982Z,25.84
2018-07-05T11:13:16.491Z,26.01
2018-07-05T11:16:03.160Z,26.12
2018-07-05T11:18:49.759Z,26.15
2018-07-05T11:21:36.265Z,25.98
2018-07-05T11:24:22.864Z,26.00
2018-07-05T11:27:09.448Z,26.04
2018-07-05T11:29:56.042Z,26.10
2018-07-05T11:32:42.562Z,26.08
2018-07-05T11:35:29.126Z,26.18
2018-07-05T11:38:15.912Z,26.20
2018-07-05T11:41:02.404Z,26.11
2018-07-05T11:43:48.813Z,26.08
2018-07-05T11:46:35.402Z,26.09
2018-07-05T11:49:22.099Z,26.31
2018-07-05T11:52:08.869Z,26.52
2018-07-05T11:54:55.410Z,26.60
2018-07-05T11:57:41.984Z,26.60
2018-07-05T12:00:28.590Z,26.62
2018-07-05T12:03:15.236Z,26.46
2018-07-05T12:06:01.807Z,26.42
2018-07-05T12:08:48.288Z,26.36
2018-07-05T12:11:34.911Z,26.30
2018-07-05T12:14:21.500Z,26.34
2018-07-05T12:17:08.120Z,26.40
2018-07-05T12:19:54.806Z,26.53
2018-07-05T12:22:41.288Z,26.53
2018-07-05T12:25:27.980Z,26.60
2018-07-05T12:28:14.561Z,26.60
2018-07-05T12:31:01.136Z,26.52
2018-07-05T12:33:47.719Z,26.57
2018-07-05T12:36:34.336Z,26.70
2018-07-05T12:39:20.919Z,26.85
2018-07-05T12:42:07.547Z,26.84
2018-07-05T12:44:54.084Z,26.69
2018-07-05T12:47:40.717Z,26.75
2018-07-05T12:50:27.227Z,26.71
2018-07-05T12:53:13.651Z,26.80
2018-07-05T12:56:00.289Z,26.86
2018-07-05T12:58:46.984Z,26.87
2018-07-05T13:01:33.556Z,26.87
2018-07-05T13:04:20.135Z,27.01
2018-07-05T13:07:06.493Z,27.04
2018-07-05T13:09:52.996Z,27.03
2018-07-05T13:12:39.495Z,27.07
2018-07-05T13:15:26.149Z,27.09
2018-07-05T13:18:12.784Z,27.13
2018-07-05T13:20:59.474Z,27.12
2018-07-05T13:23:46.133Z,27.09
2018-07-05T13:26:32.640Z,26.89
2018-07-05T13:29:19.147Z,26.94
2018-07-05T13:32:05.780Z,27.14
2018-07-05T13:34:52.255Z,27.05
2018-07-05T13:37:38.815Z,27.13
2018-07-05T13:40:25.198Z,27.18
2018-07-05T13:43:11.847Z,26.87
2018-07-05T13:45:58.467Z,27.00
2018-07-05T13:48:44.918Z,27.02
2018-07-05T13:51:31.708Z,27.12
2018-07-05T13:54:18.454Z,27.21
2018-07-05T13:57:04.959Z,27.17
2018-07-05T13:59:51.579Z,27.07
2018-07-05T14:02:38.192Z,27.25
2018-07-05T14:05:24.663Z,27.16
2018-07-05T14:08:11.151Z,27.16
2018-07-05T14:10:57.731Z,27.13
2018-07-05T14:13:44.295Z,27.13
2018-07-05T14:16:30.987Z,27.28
2018-07-05T14:19:17.575Z,27.36
2018-07-05T14:22:04.033Z,27.46
2018-07-05T14:24:50.671Z,27.42
2018-07-05T14:27:37.197Z,27.52
2018-07-05T14:30:23.831Z,27.44
2018-07-05T14:33:10.443Z,27.47
2018-07-05T14:35:57.129Z,27.63
2018-07-05T14:38:43.851Z,27.47
2018-07-05T14:41:30.444Z,27.39
2018-07-05T14:44:17.138Z,27.40
2018-07-05T14:47:03.673Z,27.52
2018-07-05T14:49:50.139Z,27.51
2018-07-05T14:52:36.540Z,27.40
2018-07-05T14:55:23.083Z,27.47
2018-07-05T14:58:09.595Z,27.50
2018-07-05T15:00:56.326Z,27.47
2018-07-05T15:03:42.871Z,27.26
2018-07-05T15:06:29.479Z,27.39
2018-07-05T15:09:16.061Z,27.54
2018-07-05T15:12:02.496Z,27.50
2018-07-05T15:14:48.923Z,27.57
2018-07-05T15:17:35.425Z,27.63
2018-07-05T15:20:21.909Z,27.47
2018-07-05T15:23:08.481Z,27.45
2018-07-05T15:25:55.068Z,27.53
2018-07-05T15:28:41.581Z,27.58
2018-07-05T15:31:28.236Z,27.48
2018-07-05T15:34:14.723Z,27.35
2018-07-05T15:37:01.451Z,27.50
2018-07-05T15:39:47.949Z,27.62
2018-07-05T15:42:34.638Z,27.68
2018-07-05T15:45:21.027Z,27.61
2018-07-05T15:48:07.673Z,27.61
2018-07-05T15:50:54.248Z,27.46
2018-07-05T15:53:40.880Z,27.21
2018-07-05T15:56:27.343Z,27.18
2018-07-05T15:59:13.972Z,27.40
2018-07-05T16:02:00.575Z,27.55
2018-07-05T16:04:47.151Z,27.53
2018-07-05T16:07:33.727Z,27.41
2018-07-05T16:10:20.326Z,27.45
2018-07-05T16:13:06.943Z,27.45
2018-07-05T16:15:53.543Z,27.46
2018-07-05T16:18:40.384Z,27.54
2018-07-05T16:21:26.957Z,27.47
2018-07-05T16:24:13.541Z,27.43
2018-07-05T16:27:00.056Z,27.60
2018-07-05T16:29:46.731Z,27.51
2018-07-05T16:32:33.227Z,27.44
2018-07-05T16:35:19.940Z,27.41
2018-07-05T16:38:06.586Z,27.29
2018-07-05T16:40:53.077Z,27.30
2018-07-05T16:43:39.725Z,27.27
2018-07-05T16:46:26.228Z,27.00
2018-07-05T16:49:12.867Z,27.09
2018-07-05T16:51:59.484Z,27.13
2018-07-05T16:54:46.109Z,27.11
2018-07-05T16:57:32.746Z,27.04
2018-07-05T17:00:19.091Z,27.05
2018-07-05T17:04:07.999Z,26.72
2018-07-05T17:06:54.799Z,26.68
2018-07-05T17:09:41.468Z,26.84
2018-07-05T17:12:27.951Z,26.68
2018-07-05T17:15:14.465Z,26.92
2018-07-05T17:18:01.129Z,26.72
2018-07-05T17:20:47.746Z,26.70
2018-07-05T17:23:34.331Z,26.68
2018-07-05T17:26:21.029Z,26.60
2018-07-05T17:29:07.463Z,26.38
2018-07-05T17:31:54.042Z,26.57
2018-07-05T17:34:40.688Z,26.39
2018-07-05T17:37:27.532Z,26.24
2018-07-05T17:40:14.044Z,26.13
2018-07-05T17:43:00.611Z,26.29
2018-07-05T17:45:47.144Z,26.16
2018-07-05T17:48:33.752Z,26.19
2018-07-05T17:51:20.347Z,26.26
2018-07-05T17:54:06.997Z,26.13
2018-07-05T17:56:53.437Z,26.18
2018-07-05T17:59:40.074Z,25.93
2018-07-05T18:02:26.773Z,25.93
2018-07-05T18:05:13.339Z,25.91
2018-07-05T18:07:59.695Z,25.76
2018-07-05T18:10:46.392Z,25.87
2018-07-05T18:13:32.910Z,25.89
2018-07-05T18:16:19.564Z,25.72
2018-07-05T18:19:06.118Z,25.67
2018-07-05T18:21:52.674Z,25.84
2018-07-05T18:24:39.014Z,25.44
2018-07-05T18:27:25.528Z,25.62
2018-07-05T18:30:12.173Z,25.59
2018-07-05T18:32:58.764Z,25.82
2018-07-05T18:35:45.345Z,25.89
2018-07-05T18:38:31.900Z,26.00
2018-07-05T18:41:19.555Z,26.09
2018-07-05T18:44:06.191Z,26.10
2018-07-05T18:46:52.779Z,26.07
2018-07-05T18:49:39.389Z,26.06
2018-07-05T18:52:25.987Z,26.00
2018-07-05T18:55:12.640Z,25.98
2018-07-05T18:57:59.296Z,25.95
2018-07-05T19:00:45.791Z,25.90
2018-07-05T19:03:32.297Z,25.84
2018-07-05T19:06:18.892Z,25.82
2018-07-05T19:09:05.712Z,25.76
2018-07-05T19:11:52.315Z,25.61
2018-07-05T19:14:38.829Z,25.69
2018-07-05T19:17:25.391Z,25.70
2018-07-05T19:20:11.971Z,25.58
2018-07-05T19:22:58.633Z,25.55
2018-07-05T19:25:45.456Z,25.50
2018-07-05T19:28:31.984Z,25.47
2018-07-05T19:31:18.507Z,25.47
2018-07-05T19:34:04.952Z,25.50
2018-07-05T19:36:51.592Z,25.54
2018-07-05T19:39:38.223Z,25.50
2018-07-05T19:42:24.760Z,25.43
2018-07-05T19:45:11.258Z,25.33
2018-07-05T19:47:57.888Z,25.31
2018-07-05T19:50:44.412Z,25.32
2018-07-05T19:53:30.990Z,25.30
2018-07-05T19:56:17.592Z,25.26
2018-07-05T19:59:04.188Z,25.20
2018-07-05T20:01:50.785Z,25.17
2018-07-05T20:04:37.404Z,25.13
2018-07-05T20:07:23.960Z,25.08
2018-07-05T20:10:10.714Z,25.05
2018-07-05T20:12:57.193Z,25.03
2018-07-05T20:15:43.883Z,25.00
2018-07-05T20:18:30.560Z,24.92
2018-07-05T20:21:17.043Z,24.86
2018-07-05T20:24:03.603Z,24.80
2018-07-05T20:26:49.954Z,24.79
2018-07-05T20:29:36.701Z,24.68
2018-07-05T20:32:23.027Z,24.75
2018-07-05T20:35:09.791Z,24.80
2018-07-05T20:37:56.276Z,24.76
2018-07-05T20:40:42.717Z,24.74
2018-07-05T20:43:29.164Z,24.73
2018-07-05T20:46:15.739Z,24.72
2018-07-05T20:49:02.382Z,24.70
2018-07-05T20:51:49.056Z,24.71
2018-07-05T20:54:35.545Z,24.70
2018-07-05T20:57:22.116Z,24.60
2018-07-05T21:00:08.707Z,24.58
2018-07-05T21:02:55.268Z,24.62
2018-07-05T21:05:41.797Z,24.56
2018-07-05T21:08:28.340Z,24.54
2018-07-05T21:11:14.925Z,24.54
2018-07-05T21:14:01.432Z,24.49
2018-07-05T21:16:47.962Z,24.42
2018-07-05T21:19:34.359Z,24.34
2018-07-05T21:22:20.835Z,24.30
2018-07-05T21:25:07.472Z,24.27
2018-07-05T21:27:54.035Z,24.32
2018-07-05T21:30:40.658Z,24.35
2018-07-05T21:33:27.019Z,24.32
2018-07-05T21:36:13.620Z,24.26
2018-07-05T21:39:00.203Z,24.33
2018-07-05T21:41:46.815Z,24.51
2018-07-05T21:44:33.375Z,24.49
2018-07-05T21:47:19.825Z,24.48
2018-07-05T21:50:06.376Z,24.38
2018-07-05T21:52:52.973Z,24.28
2018-07-05T21:55:39.651Z,24.17
2018-07-05T21:58:26.556Z,24.10
2018-07-05T22:01:13.200Z,23.99
2018-07-05T22:03:59.796Z,23.88
2018-07-05T22:06:46.151Z,23.83
2018-07-05T22:09:32.740Z,23.77
2018-07-05T22:12:19.467Z,23.85
2018-07-05T22:15:06.130Z,23.95
2018-07-05T22:17:57.848Z,23.95
2018-07-05T22:20:49.536Z,24.05
2018-07-05T22:23:41.242Z,24.08
2018-07-05T22:26:33.999Z,24.10
2018-07-05T22:29:25.680Z,24.17
2018-07-05T22:32:12.095Z,24.22
2018-07-05T22:34:58.613Z,24.17
2018-07-05T22:37:45.299Z,24.19
2018-07-05T22:40:31.747Z,24.23
2018-07-05T22:43:18.386Z,24.20
2018-07-05T22:46:04.919Z,24.21
2018-07-05T22:48:51.289Z,24.22
2018-07-05T22:51:37.863Z,24.20
2018-07-05T22:54:24.462Z,24.22
2018-07-05T22:57:11.224Z,24.22
2018-07-05T22:59:57.647Z,24.17
2018-07-05T23:02:44.256Z,24.09
2018-07-05T23:05:30.800Z,24.13
2018-07-05T23:08:17.407Z,24.17
2018-07-05T23:11:04.116Z,24.09
2018-07-05T23:13:50.675Z,23.99
2018-07-05T23:16:37.286Z,23.85
2018-07-05T23:19:23.851Z,23.60
2018-07-05T23:22:10.381Z,23.60
2018-07-05T23:24:56.769Z,23.61
2018-07-05T23:27:43.431Z,23.35
2018-07-05T23:30:29.939Z,23.40
2018-07-05T23:33:16.529Z,23.39
2018-07-05T23:36:03.039Z,23.45
2018-07-05T23:38:49.672Z,23.46
2018-07-05T23:41:36.258Z,23.41
2018-07-05T23:44:22.888Z,23.34
2018-07-05T23:47:09.440Z,23.28
2018-07-05T23:49:56.130Z,23.25
2018-07-05T23:52:42.523Z,23.09
2018-07-05T23:55:29.020Z,23.06
2018-07-05T23:58:15.567Z,23.29
